Time;durP1;ratioP1;P1;durP2;ratioP2;P2;SDS_P1;SDS_P2;PMS_P1;PMS_P2;Temp;Humidity;BMP_temperature;BMP_pressure;BME280_temperature;BME280_humidity;BME280_pressure;Samples;Min_cycle;Max_cycle;Signal;HPM_P1;HPM_P2
2021/01/10 00:00:39;;;;;;;4.70;2.80;;;;;;;5.32;45.07;101554.34;4991689;28;20047;-74
2021/01/10 00:03:06;;;;;;;4.43;3.00;;;;;;;5.33;44.98;101560.41;4994862;28;20487;-72
2021/01/10 00:05:35;;;;;;;4.07;2.88;;;;;;;5.33;45.04;101555.19;4994848;28;20089;-72
2021/01/10 00:08:02;;;;;;;3.80;2.67;;;;;;;5.33;44.97;101553.47;4994709;28;20134;-74
2021/01/10 00:10:29;;;;;;;5.03;2.83;;;;;;;5.33;44.68;101545.66;4994494;28;20049;-71
2021/01/10 00:13:00;;;;;;;4.05;2.65;;;;;;;5.34;44.82;101551.72;4994927;28;20046;-73
2021/01/10 00:15:26;;;;;;;4.32;2.75;;;;;;;5.35;44.66;101545.63;4994493;28;20061;-71
2021/01/10 00:17:53;;;;;;;4.97;3.20;;;;;;;5.34;44.75;101549.13;4994621;28;20063;-72
2021/01/10 00:20:20;;;;;;;4.25;2.33;;;;;;;5.34;44.97;101552.56;4994828;28;20057;-72
2021/01/10 00:22:53;;;;;;;4.22;2.70;;;;;;;5.34;44.90;101551.72;4993580;28;20046;-74
2021/01/10 00:25:20;;;;;;;3.60;2.72;;;;;;;5.34;45.13;101546.50;4994494;28;20509;-72
2021/01/10 00:27:47;;;;;;;3.72;2.85;;;;;;;5.34;44.96;101547.34;4980852;28;20038;-72
2021/01/10 00:30:17;;;;;;;3.67;2.83;;;;;;;5.34;44.81;101552.56;4994364;28;20046;-73
2021/01/10 00:32:47;;;;;;;3.95;2.78;;;;;;;5.35;44.66;101556.03;4994195;28;20093;-73
2021/01/10 00:35:15;;;;;;;4.75;2.60;;;;;;;5.36;44.73;101552.56;4994346;28;20046;-71
2021/01/10 00:37:50;;;;;;;3.83;2.72;;;;;;;5.35;44.69;101562.09;4994161;28;20047;-72
2021/01/10 00:40:18;;;;;;;3.95;2.75;;;;;;;5.35;44.56;101553.44;4994365;28;20494;-73
2021/01/10 00:42:48;;;;;;;4.00;2.80;;;;;;;5.35;44.66;101546.47;4993831;28;20141;-70
2021/01/10 00:45:17;;;;;;;4.65;2.90;;;;;;;5.34;44.37;101546.50;4980384;28;20046;-72
2021/01/10 00:47:43;;;;;;;5.32;3.50;;;;;;;5.33;44.36;101543.06;4993976;28;20053;-73
2021/01/10 00:50:10;;;;;;;4.85;3.30;;;;;;;5.32;44.48;101545.69;4993442;28;20046;-73
2021/01/10 00:52:37;;;;;;;5.07;3.45;;;;;;;5.32;44.28;101530.94;4993969;28;20050;-73
2021/01/10 00:55:06;;;;;;;4.82;3.40;;;;;;;5.31;44.26;101539.63;4993571;28;20069;-74
2021/01/10 00:57:32;;;;;;;5.45;4.05;;;;;;;5.31;44.32;101544.84;4993753;28;20050;-72
2021/01/10 00:59:59;;;;;;;4.55;3.20;;;;;;;5.31;44.21;101550.03;4993574;28;20100;-73
2021/01/10 01:02:25;;;;;;;4.22;3.13;;;;;;;5.30;44.34;101550.91;4993614;28;20491;-74
2021/01/10 01:04:51;;;;;;;5.22;3.40;;;;;;;5.30;44.39;101550.91;4993620;28;20508;-73
2021/01/10 01:07:17;;;;;;;4.10;3.13;;;;;;;5.30;44.45;101553.53;4993788;28;20054;-74
2021/01/10 01:09:43;;;;;;;4.03;3.13;;;;;;;5.31;44.49;101554.41;4993428;28;20055;-73
2021/01/10 01:12:23;;;;;;;4.57;3.55;;;;;;;5.30;44.82;101556.13;4993594;28;20057;-73
2021/01/10 01:14:49;;;;;;;4.63;3.35;;;;;;;5.30;44.64;101543.13;4993677;28;20457;-73
2021/01/10 01:17:15;;;;;;;5.43;3.60;;;;;;;5.30;44.75;101542.28;4993310;28;20058;-73
2021/01/10 01:19:41;;;;;;;4.97;3.58;;;;;;;5.29;44.73;101538.78;4993523;28;20047;-73
2021/01/10 01:22:07;;;;;;;4.93;3.53;;;;;;;5.28;44.70;101542.31;4993208;28;20050;-73
2021/01/10 01:24:33;;;;;;;5.55;3.47;;;;;;;5.27;44.93;101545.78;4993106;28;20077;-73
2021/01/10 01:27:00;;;;;;;4.72;3.42;;;;;;;5.27;44.95;101548.41;4993497;28;20403;-73
2021/01/10 01:29:26;;;;;;;6.40;4.05;;;;;;;5.27;45.00;101552.72;4993376;28;20054;-73
2021/01/10 01:31:52;;;;;;;5.45;4.07;;;;;;;5.27;45.16;101542.31;4993275;28;20407;-73
2021/01/10 01:34:18;;;;;;;7.18;4.80;;;;;;;5.27;45.18;101548.41;4993082;28;20085;-74
2021/01/10 01:36:44;;;;;;;5.95;4.10;;;;;;;5.26;45.40;101546.69;4993149;28;20054;-73
2021/01/10 01:39:10;;;;;;;4.43;3.35;;;;;;;5.28;45.24;101544.03;4993018;28;20050;-74
2021/01/10 01:41:38;;;;;;;5.75;3.95;;;;;;;5.27;45.33;101538.00;4993108;28;20056;-73
2021/01/10 01:44:04;;;;;;;6.40;4.30;;;;;;;5.27;45.62;101538.00;4993084;28;20077;-70
2021/01/10 01:46:37;;;;;;;5.50;3.95;;;;;;;5.27;45.79;101539.72;4993096;28;20069;-74
2021/01/10 01:49:06;;;;;;;5.13;3.78;;;;;;;5.26;45.59;101536.28;4993214;28;20050;-73
2021/01/10 01:51:34;;;;;;;5.43;3.38;;;;;;;5.25;45.71;101542.34;4992819;28;20448;-73
2021/01/10 01:54:03;;;;;;;5.75;3.25;;;;;;;5.24;45.29;101535.44;4992891;28;20454;-74
2021/01/10 01:56:29;;;;;;;5.65;3.72;;;;;;;5.23;45.75;101537.19;4992842;28;20510;-72
2021/01/10 01:58:59;;;;;;;5.70;4.20;;;;;;;5.22;45.71;101537.22;4993023;28;20039;-74
2021/01/10 02:01:28;;;;;;;5.72;3.45;;;;;;;5.23;45.74;101536.31;4992885;28;20050;-74
2021/01/10 02:03:59;;;;;;;6.72;4.07;;;;;;;5.23;45.90;101546.72;4992748;28;20050;-74
2021/01/10 02:06:30;;;;;;;5.45;3.58;;;;;;;5.23;46.11;101558.00;4992895;28;20047;-73
2021/01/10 02:09:01;;;;;;;5.85;3.80;;;;;;;5.23;46.12;101554.53;4992644;28;20046;-74
2021/01/10 02:11:29;;;;;;;6.55;3.85;;;;;;;5.22;46.20;101560.66;4992847;28;20057;-74
2021/01/10 02:13:56;;;;;;;5.45;3.65;;;;;;;5.23;46.13;101557.13;4992720;28;20046;-73
2021/01/10 02:16:22;;;;;;;6.88;3.80;;;;;;;5.22;46.00;101555.44;4992731;28;20051;-74
2021/01/10 02:18:48;;;;;;;4.70;3.47;;;;;;;5.22;46.10;101568.47;4992663;28;20054;-68
2021/01/10 02:21:16;;;;;;;5.35;3.80;;;;;;;5.22;46.07;101560.66;4991997;28;20047;-73
2021/01/10 02:23:43;;;;;;;4.75;3.42;;;;;;;5.22;46.14;101563.25;4992223;28;20499;-74
2021/01/10 02:26:10;;;;;;;5.93;3.65;;;;;;;5.22;46.40;101566.69;4992924;28;20052;-74
2021/01/10 02:28:38;;;;;;;5.95;4.00;;;;;;;5.22;46.68;101571.06;4992552;28;20050;-74
2021/01/10 02:31:05;;;;;;;6.55;3.88;;;;;;;5.20;46.77;101559.81;4991796;28;20130;-74
2021/01/10 02:33:44;;;;;;;7.68;4.80;;;;;;;5.20;47.10;101565.88;4992554;28;20077;-74
2021/01/10 02:36:19;;;;;;;7.10;4.60;;;;;;;5.17;46.98;101557.28;4992542;28;20046;-74
2021/01/10 02:38:50;;;;;;;8.38;4.30;;;;;;;5.15;47.25;101567.72;4992563;28;20076;-73
2021/01/10 02:41:46;;;;;;;7.93;4.65;;;;;;;5.16;47.59;101568.59;4992593;28;20046;-74
2021/01/10 02:44:20;;;;;;;7.10;4.07;;;;;;;5.13;47.82;101566.91;4992358;28;20050;-74
2021/01/10 02:46:52;;;;;;;7.97;4.10;;;;;;;5.14;48.12;101557.34;4992293;28;20050;-74
2021/01/10 02:49:19;;;;;;;6.45;3.75;;;;;;;5.12;48.35;101559.97;4992521;28;20042;-73
2021/01/10 02:51:49;;;;;;;6.18;3.97;;;;;;;5.10;48.64;101558.28;4992235;28;20514;-74
2021/01/10 02:54:17;;;;;;;7.30;4.00;;;;;;;5.09;48.78;101553.97;4992219;28;20058;-74
2021/01/10 02:57:09;;;;;;;6.13;3.90;;;;;;;5.06;48.99;101558.34;4992265;28;20051;-74
2021/01/10 02:59:42;;;;;;;6.32;3.90;;;;;;;5.05;49.14;101553.19;4992484;28;20043;-73
2021/01/10 03:02:11;;;;;;;8.95;5.30;;;;;;;5.03;49.10;101552.38;4992207;28;20482;-74
2021/01/10 03:04:38;;;;;;;8.05;5.43;;;;;;;5.01;49.51;101549.78;4992213;28;20070;-74
2021/01/10 03:07:05;;;;;;;9.75;5.47;;;;;;;5.00;49.48;101540.28;4992335;28;20074;-74
2021/01/10 03:09:32;;;;;;;8.40;5.28;;;;;;;4.98;49.88;101542.06;4991943;28;20125;-74
2021/01/10 03:12:24;;;;;;;6.43;3.97;;;;;;;4.98;49.90;101546.41;4992234;28;20097;-73
2021/01/10 03:14:54;;;;;;;6.30;4.15;;;;;;;4.97;49.87;101544.69;4995524;28;20062;-73
2021/01/10 03:17:33;;;;;;;6.88;4.15;;;;;;;4.95;50.00;101534.31;4995414;28;20533;-69
2021/01/10 03:20:03;;;;;;;6.05;4.10;;;;;;;4.94;50.46;101544.72;4995839;28;20047;-74
2021/01/10 03:22:29;;;;;;;6.55;4.18;;;;;;;4.90;50.84;101537.00;4995584;28;20049;-72
2021/01/10 03:24:55;;;;;;;7.05;4.25;;;;;;;4.90;51.01;101533.53;4995376;28;20047;-73
2021/01/10 03:27:21;;;;;;;7.35;3.97;;;;;;;4.88;51.31;101528.38;4995485;28;20057;-74
2021/01/10 03:29:48;;;;;;;8.98;4.10;;;;;;;4.87;51.16;101524.06;4995574;28;20053;-73
2021/01/10 03:32:15;;;;;;;7.35;4.60;;;;;;;4.86;51.79;101521.50;4995594;28;20050;-74
2021/01/10 03:34:41;;;;;;;6.68;4.03;;;;;;;4.85;51.53;101522.38;4995295;28;20050;-72
2021/01/10 03:37:08;;;;;;;7.20;3.97;;;;;;;4.85;51.81;101509.38;4995428;28;20503;-74
2021/01/10 03:39:34;;;;;;;5.50;3.95;;;;;;;4.85;51.98;101510.25;4995339;28;20045;-74
2021/01/10 03:42:01;;;;;;;8.43;4.85;;;;;;;4.84;52.21;101505.91;4995392;28;20129;-74
2021/01/10 03:44:28;;;;;;;5.55;4.18;;;;;;;4.83;52.26;101498.16;4995234;28;20054;-74
2021/01/10 03:46:54;;;;;;;6.63;4.35;;;;;;;4.82;52.48;101499.03;4995163;28;20075;-73
2021/01/10 03:49:21;;;;;;;5.85;4.38;;;;;;;4.80;52.73;101499.06;4995442;28;20116;-74
2021/01/10 03:51:47;;;;;;;8.25;4.57;;;;;;;4.79;52.75;101493.91;4995006;28;20050;-73
2021/01/10 03:54:13;;;;;;;6.20;4.30;;;;;;;4.77;52.86;101491.31;4994817;28;20058;-74
2021/01/10 03:56:39;;;;;;;7.30;4.38;;;;;;;4.76;52.79;101487.00;4994861;28;20410;-73
2021/01/10 03:59:06;;;;;;;8.65;4.60;;;;;;;4.75;52.67;101493.13;4994996;28;20407;-74
2021/01/10 04:01:32;;;;;;;7.00;4.70;;;;;;;4.74;52.72;101504.41;4994728;28;20522;-68
2021/01/10 04:03:58;;;;;;;6.32;4.40;;;;;;;4.72;52.81;101509.63;4981003;28;20501;-74
2021/01/10 04:06:24;;;;;;;7.63;4.65;;;;;;;4.70;52.81;101514.00;4990457;28;20054;-74
2021/01/10 04:08:50;;;;;;;6.60;4.18;;;;;;;4.70;52.97;101514.00;4991067;28;20437;-74
2021/01/10 04:11:17;;;;;;;7.70;4.60;;;;;;;4.68;52.90;101505.34;4991878;28;20442;-73
2021/01/10 04:13:43;;;;;;;7.13;4.30;;;;;;;4.66;53.06;101509.75;4973723;28;20050;-74
2021/01/10 04:16:11;;;;;;;8.43;4.55;;;;;;;4.65;53.11;101502.84;4991258;28;20388;-74
2021/01/10 04:18:37;;;;;;;6.43;4.22;;;;;;;4.64;53.49;101506.31;4991188;28;20101;-68
2021/01/10 04:21:04;;;;;;;8.50;4.30;;;;;;;4.63;53.47;101496.78;4991426;28;20046;-74
2021/01/10 04:23:30;;;;;;;6.57;4.47;;;;;;;4.64;53.59;101497.66;4990381;28;20054;-73
2021/01/10 04:25:56;;;;;;;6.88;4.68;;;;;;;4.62;53.67;101499.44;4990655;28;20053;-74
2021/01/10 04:28:22;;;;;;;7.22;5.03;;;;;;;4.61;53.87;101496.00;4990963;28;20114;-74
2021/01/10 04:30:49;;;;;;;7.57;4.80;;;;;;;4.59;54.08;101497.75;4990746;28;20560;-68
2021/01/10 04:33:15;;;;;;;6.45;4.20;;;;;;;4.57;54.11;101491.72;4991217;28;20054;-74
2021/01/10 04:35:41;;;;;;;5.50;4.45;;;;;;;4.57;54.29;101491.72;4990697;28;20050;-69
2021/01/10 04:38:07;;;;;;;6.03;4.50;;;;;;;4.57;54.11;101489.13;4990770;28;20070;-71
2021/01/10 04:40:33;;;;;;;7.88;4.28;;;;;;;4.56;54.24;101490.03;4990781;28;20046;-68
2021/01/10 04:43:01;;;;;;;7.70;4.90;;;;;;;4.54;54.30;101492.63;4990340;28;20093;-69
2021/01/10 04:45:27;;;;;;;8.68;5.10;;;;;;;4.54;54.24;101494.38;4990936;28;20522;-68
2021/01/10 04:47:54;;;;;;;7.13;4.35;;;;;;;4.53;54.31;101490.06;4991133;28;20513;-74
2021/01/10 04:50:22;;;;;;;7.07;4.60;;;;;;;4.51;54.57;101487.50;4990436;28;20054;-74
2021/01/10 04:52:56;;;;;;;8.13;4.80;;;;;;;4.51;54.43;101492.72;4990520;28;20054;-68
2021/01/10 04:55:23;;;;;;;7.30;4.75;;;;;;;4.51;54.55;101490.09;4990276;28;20050;-73
2021/01/10 04:58:00;;;;;;;7.38;4.85;;;;;;;4.50;54.22;101484.94;4990469;28;20046;-69
2021/01/10 05:00:27;;;;;;;8.77;4.63;;;;;;;4.51;54.42;101482.31;4990622;28;20491;-73
2021/01/10 05:03:01;;;;;;;6.68;5.05;;;;;;;4.51;54.42;101484.06;4990118;28;20483;-73
2021/01/10 05:05:28;;;;;;;7.57;5.25;;;;;;;4.50;54.17;101485.78;4990479;28;20106;-74
2021/01/10 05:07:56;;;;;;;11.43;6.05;;;;;;;4.49;54.23;101484.06;4990326;28;20057;-68
2021/01/10 05:10:22;;;;;;;21.55;12.20;;;;;;;4.49;54.21;101493.63;4990090;28;20050;-70
2021/01/10 05:12:48;;;;;;;20.83;12.48;;;;;;;4.48;54.19;101491.91;4990374;28;20073;-68
2021/01/10 05:15:15;;;;;;;24.70;14.52;;;;;;;4.47;54.23;101491.06;4990285;28;20046;-69
2021/01/10 05:17:51;;;;;;;14.65;9.63;;;;;;;4.48;54.27;101484.09;4990046;28;20061;-74
2021/01/10 05:20:17;;;;;;;18.55;9.90;;;;;;;4.49;54.30;101480.63;4990105;28;20061;-73
2021/01/10 05:22:44;;;;;;;25.88;14.73;;;;;;;4.49;54.47;101480.63;4990126;28;20092;-73
2021/01/10 05:25:12;;;;;;;34.97;20.13;;;;;;;4.48;54.50;101476.31;4990023;28;20133;-73
2021/01/10 05:27:38;;;;;;;29.23;15.70;;;;;;;4.48;54.58;101468.50;4989769;28;20052;-74
2021/01/10 05:30:05;;;;;;;24.70;14.77;;;;;;;4.47;54.68;101461.59;4990038;28;20042;-73
2021/01/10 05:32:32;;;;;;;19.73;11.50;;;;;;;4.45;54.73;101468.59;4989793;28;20404;-74
2021/01/10 05:35:01;;;;;;;13.30;7.63;;;;;;;4.47;54.94;101464.19;4990023;28;20055;-68
2021/01/10 05:37:29;;;;;;;14.35;7.45;;;;;;;4.46;55.02;101458.16;4990122;28;20474;-70
2021/01/10 05:39:56;;;;;;;9.82;5.65;;;;;;;4.48;55.12;101468.50;4990033;28;20050;-68
2021/01/10 05:42:29;;;;;;;8.15;5.43;;;;;;;4.47;55.25;101472.88;4989884;28;20060;-73
2021/01/10 05:44:56;;;;;;;7.82;5.55;;;;;;;4.48;55.60;101476.31;4990034;28;20050;-74
2021/01/10 05:47:22;;;;;;;8.82;6.15;;;;;;;4.47;55.66;101487.59;4989577;28;20050;-68
2021/01/10 05:49:55;;;;;;;9.45;4.72;;;;;;;4.47;55.72;101492.78;4989664;28;20058;-73
2021/01/10 05:52:22;;;;;;;11.00;5.25;;;;;;;4.47;55.92;101500.56;4989794;28;20050;-70
2021/01/10 05:54:55;;;;;;;9.63;5.88;;;;;;;4.45;56.16;101508.41;4989377;28;20055;-73
2021/01/10 05:57:27;;;;;;;9.15;5.65;;;;;;;4.43;56.38;101497.19;4989855;28;20046;-70
2021/01/10 05:59:55;;;;;;;13.32;6.80;;;;;;;4.43;56.19;101501.53;4989400;28;20137;-73
2021/01/10 06:02:34;;;;;;;12.70;6.38;;;;;;;4.43;56.22;101502.38;4989612;28;20495;-73
2021/01/10 06:05:18;;;;;;;10.27;5.10;;;;;;;4.43;56.37;101509.31;4989391;28;20166;-68
2021/01/10 06:07:48;;;;;;;8.23;4.45;;;;;;;4.43;56.18;101499.78;4989665;28;20426;-73
2021/01/10 06:10:27;;;;;;;7.72;4.20;;;;;;;4.45;55.45;101495.41;4989208;28;20046;-70
2021/01/10 06:13:04;;;;;;;6.68;3.72;;;;;;;4.49;54.74;101501.41;4989239;28;20108;-71
2021/01/10 06:15:31;;;;;;;6.40;4.22;;;;;;;4.50;54.22;101503.97;4989069;28;20049;-72
2021/01/10 06:18:01;;;;;;;7.22;4.45;;;;;;;4.52;54.16;101506.53;4989580;28;20398;-71
2021/01/10 06:20:29;;;;;;;7.60;4.50;;;;;;;4.53;53.90;101510.84;4989310;28;20046;-68
2021/01/10 06:22:58;;;;;;;7.35;4.47;;;;;;;4.54;53.89;101503.03;4989489;28;20494;-74
2021/01/10 06:25:26;;;;;;;7.72;4.57;;;;;;;4.53;53.83;101509.13;4989214;28;20387;-73
2021/01/10 06:28:02;;;;;;;7.47;4.82;;;;;;;4.54;53.98;101507.38;4972364;28;20054;-74
2021/01/10 06:30:35;;;;;;;7.55;4.18;;;;;;;4.54;53.98;101507.38;4989026;28;20062;-68
2021/01/10 06:33:14;;;;;;;6.88;3.58;;;;;;;4.54;54.01;101509.97;4989501;28;20047;-73
2021/01/10 06:35:42;;;;;;;6.40;4.35;;;;;;;4.52;54.27;101512.63;4988939;28;20050;-73
2021/01/10 06:38:11;;;;;;;8.13;5.18;;;;;;;4.51;54.15;101513.50;4989543;28;20515;-69
2021/01/10 06:41:07;;;;;;;6.07;3.95;;;;;;;4.50;54.26;101516.13;4989439;28;20056;-70
2021/01/10 06:43:41;;;;;;;5.28;3.50;;;;;;;4.49;53.54;101517.84;4979506;28;20398;-73
2021/01/10 06:46:07;;;;;;;7.13;3.78;;;;;;;4.51;53.01;101510.91;4989252;28;20142;-69
2021/01/10 06:48:33;;;;;;;4.38;2.80;;;;;;;4.53;52.86;101514.34;4991925;28;20042;-68
2021/01/10 06:51:02;;;;;;;3.92;2.47;;;;;;;4.55;52.29;101519.50;4992932;28;20487;-70
2021/01/10 06:53:30;;;;;;;2.88;2.20;;;;;;;4.57;51.44;101515.09;4992542;28;20046;-71
2021/01/10 06:55:56;;;;;;;2.58;2.00;;;;;;;4.61;50.66;101515.91;4992969;28;20517;-69
2021/01/10 06:58:22;;;;;;;2.85;2.10;;;;;;;4.62;50.19;101517.63;4992991;28;20057;-72
2021/01/10 07:00:50;;;;;;;3.35;2.20;;;;;;;4.65;50.12;101515.84;4992762;28;20054;-70
2021/01/10 07:03:16;;;;;;;3.10;2.33;;;;;;;4.66;49.38;101514.94;4992391;28;20407;-73
2021/01/10 07:05:58;;;;;;;3.92;2.08;;;;;;;4.67;49.29;101508.88;4992491;28;20050;-69
2021/01/10 07:08:40;;;;;;;4.15;2.42;;;;;;;4.68;49.00;101510.56;4992341;28;20054;-71
2021/01/10 07:11:21;;;;;;;3.15;2.00;;;;;;;4.71;48.84;101513.13;4992587;28;20046;-73
2021/01/10 07:13:51;;;;;;;3.65;2.80;;;;;;;4.73;48.61;101518.28;4992440;28;20053;-68
2021/01/10 07:16:22;;;;;;;4.35;2.28;;;;;;;4.74;48.42;101520.84;4992191;28;20054;-73
2021/01/10 07:18:50;;;;;;;4.13;2.50;;;;;;;4.76;48.45;101520.81;4992233;28;20061;-72
2021/01/10 07:21:42;;;;;;;4.00;2.00;;;;;;;4.77;48.34;101516.47;4992259;28;20082;-68
2021/01/10 07:24:15;;;;;;;3.08;2.38;;;;;;;4.79;48.34;101520.75;4992016;28;20050;-73
2021/01/10 07:27:00;;;;;;;3.85;2.50;;;;;;;4.81;47.99;101526.81;4992420;28;20051;-68
2021/01/10 07:29:45;;;;;;;2.42;2.10;;;;;;;4.83;47.66;101524.16;4992246;28;20047;-71
2021/01/10 07:32:20;;;;;;;2.92;2.13;;;;;;;4.82;47.38;101533.69;4991912;28;20058;-72
2021/01/10 07:34:46;;;;;;;2.50;1.85;;;;;;;4.81;47.00;101532.00;4992120;28;20074;-71
2021/01/10 07:37:15;;;;;;;3.88;2.60;;;;;;;4.83;46.92;101529.38;4992043;28;20050;-71
2021/01/10 07:39:58;;;;;;;2.90;2.20;;;;;;;4.84;46.79;101528.47;4978487;28;20050;-72
2021/01/10 07:42:29;;;;;;;3.70;2.72;;;;;;;4.86;46.66;101534.50;4991856;28;20051;-69
2021/01/10 07:44:58;;;;;;;3.08;2.50;;;;;;;4.88;46.70;101536.16;4991823;28;20046;-69
2021/01/10 07:47:33;;;;;;;4.38;2.47;;;;;;;4.90;46.57;101536.13;4991918;28;20097;-72
2021/01/10 07:50:02;;;;;;;3.03;2.17;;;;;;;4.92;46.38;101530.94;4991950;28;20073;-71
2021/01/10 07:52:44;;;;;;;4.35;2.20;;;;;;;4.94;46.43;101526.53;4991728;28;20289;-70
2021/01/10 07:55:17;;;;;;;3.25;2.33;;;;;;;4.95;46.11;101531.72;4991380;28;20046;-69
2021/01/10 07:57:44;;;;;;;4.45;2.90;;;;;;;4.98;45.96;101530.81;4991750;28;20053;-68
2021/01/10 08:00:10;;;;;;;3.95;3.00;;;;;;;4.98;45.80;101529.03;4991581;28;20137;-69
2021/01/10 08:02:50;;;;;;;4.95;2.97;;;;;;;4.99;45.72;101527.28;4991510;28;20042;-69
2021/01/10 08:05:18;;;;;;;3.95;2.75;;;;;;;5.01;45.70;101528.97;4991232;28;20061;-68
2021/01/10 08:08:04;;;;;;;5.15;3.20;;;;;;;5.04;45.89;101522.84;4991333;28;20100;-68
2021/01/10 08:10:50;;;;;;;6.10;3.90;;;;;;;5.07;45.95;101534.03;4991319;28;20043;-72
2021/01/10 08:13:42;;;;;;;6.40;3.63;;;;;;;5.11;45.59;101524.44;4991625;28;20290;-72
2021/01/10 08:16:08;;;;;;;8.45;4.40;;;;;;;5.12;45.62;101507.94;4979986;28;20296;-72
2021/01/10 08:18:45;;;;;;;6.03;3.55;;;;;;;5.13;45.56;101512.25;4991143;28;20075;-69
2021/01/10 08:21:16;;;;;;;4.38;2.72;;;;;;;5.13;45.29;101514.00;4990999;28;20050;-69
2021/01/10 08:23:44;;;;;;;4.28;2.67;;;;;;;5.13;45.29;101508.78;4990478;28;20050;-72
2021/01/10 08:26:17;;;;;;;3.47;2.60;;;;;;;5.16;45.24;101511.34;4991083;28;20042;-71
2021/01/10 08:28:46;;;;;;;3.40;2.85;;;;;;;5.16;45.17;101506.13;4990953;28;20046;-72
2021/01/10 08:31:15;;;;;;;4.57;3.50;;;;;;;5.17;45.28;101513.06;4990923;28;20561;-70
2021/01/10 08:33:41;;;;;;;4.63;3.13;;;;;;;5.18;45.10;101517.34;4990834;28;20513;-73
2021/01/10 08:36:10;;;;;;;3.50;2.58;;;;;;;5.20;45.38;101518.19;4990995;28;20419;-69
2021/01/10 08:38:57;;;;;;;2.88;2.28;;;;;;;5.21;45.02;101525.09;4991086;28;20065;-69
2021/01/10 08:41:26;;;;;;;2.97;2.38;;;;;;;5.22;44.61;101517.25;4990694;28;20051;-69
2021/01/10 08:43:58;;;;;;;3.20;2.45;;;;;;;5.25;44.53;101528.50;4990445;28;20046;-68
2021/01/10 08:46:25;;;;;;;4.70;2.88;;;;;;;5.26;44.48;101532.78;4990678;28;20050;-70
2021/01/10 08:48:52;;;;;;;4.80;2.40;;;;;;;5.27;44.42;101532.78;4990518;28;20505;-71
2021/01/10 08:51:29;;;;;;;3.63;2.15;;;;;;;5.28;44.41;101531.91;4990567;28;20065;-69
2021/01/10 08:53:55;;;;;;;4.13;2.38;;;;;;;5.30;44.49;101535.31;4977970;28;20046;-71
2021/01/10 08:56:22;;;;;;;3.60;2.20;;;;;;;5.32;44.37;101530.06;4990433;28;20058;-67
2021/01/10 08:58:53;;;;;;;4.70;2.22;;;;;;;5.36;44.11;101540.38;4990127;28;20487;-75
2021/01/10 09:01:21;;;;;;;2.30;1.80;;;;;;;5.40;43.87;101547.22;4988950;28;20510;-75
2021/01/10 09:04:02;;;;;;;2.80;2.10;;;;;;;5.45;43.47;101548.88;4974014;28;20051;-70
2021/01/10 09:06:37;;;;;;;3.63;2.35;;;;;;;5.49;43.58;101561.78;4981811;28;20051;-68
2021/01/10 09:09:09;;;;;;;4.05;2.97;;;;;;;5.52;43.02;101563.47;4983155;28;20054;-68
2021/01/10 09:11:37;;;;;;;5.22;3.83;;;;;;;5.55;42.94;101560.81;4988728;28;20565;-67
2021/01/10 09:14:06;;;;;;;3.78;2.78;;;;;;;5.57;42.84;101572.03;4989202;28;20049;-67
2021/01/10 09:16:36;;;;;;;4.75;3.08;;;;;;;5.58;42.72;101568.53;4988033;28;20447;-70
2021/01/10 09:19:03;;;;;;;2.92;2.15;;;;;;;5.58;42.57;101558.13;4985911;28;20054;-72
2021/01/10 09:21:29;;;;;;;3.47;2.72;;;;;;;5.61;42.81;101562.41;4990377;28;20046;-70
2021/01/10 09:24:00;;;;;;;3.65;2.65;;;;;;;5.62;42.77;101570.16;4989085;28;20047;-68
2021/01/10 09:26:34;;;;;;;2.42;1.83;;;;;;;5.62;42.25;101561.53;4988158;28;20057;-73
2021/01/10 09:29:03;;;;;;;2.88;2.08;;;;;;;5.62;42.22;101559.75;4987810;28;20046;-67
2021/01/10 09:31:43;;;;;;;4.20;2.70;;;;;;;5.63;42.00;101566.69;4988543;28;20070;-67
2021/01/10 09:34:10;;;;;;;3.88;2.60;;;;;;;5.65;42.20;101567.53;4988099;28;20050;-75
2021/01/10 09:36:37;;;;;;;3.95;3.08;;;;;;;5.66;42.18;101570.97;4988262;28;20065;-67
2021/01/10 09:39:05;;;;;;;3.22;2.35;;;;;;;5.68;42.13;101569.19;4988428;28;20046;-69
2021/01/10 09:41:31;;;;;;;3.90;2.72;;;;;;;5.70;42.15;101570.00;4987603;28;20050;-69
2021/01/10 09:43:58;;;;;;;8.40;4.22;;;;;;;5.72;42.16;101574.28;4988395;28;20419;-67
2021/01/10 09:46:35;;;;;;;9.05;4.70;;;;;;;5.77;42.41;101566.38;4988205;28;20042;-68
2021/01/10 09:49:15;;;;;;;7.10;4.32;;;;;;;5.81;42.27;101561.94;4987974;28;20100;-67
2021/01/10 09:51:47;;;;;;;6.80;3.45;;;;;;;5.87;42.40;101569.63;4985991;28;20050;-69
2021/01/10 09:54:20;;;;;;;2.60;2.30;;;;;;;5.93;42.40;101572.09;4989449;28;20050;-70
2021/01/10 09:56:48;;;;;;;3.88;3.10;;;;;;;6.02;42.09;101571.88;4989039;28;20043;-73
2021/01/10 09:59:33;;;;;;;3.95;2.85;;;;;;;6.09;41.95;101574.34;4989176;28;20527;-74
2021/01/10 10:02:19;;;;;;;4.78;2.42;;;;;;;6.11;41.76;101559.53;4987016;28;20053;-70
2021/01/10 10:04:51;;;;;;;3.80;2.80;;;;;;;6.13;41.44;101558.59;4986757;28;20218;-70
2021/01/10 10:07:34;;;;;;;3.75;2.78;;;;;;;6.16;41.70;101565.50;4984857;28;20053;-69
2021/01/10 10:10:04;;;;;;;4.85;3.30;;;;;;;6.18;41.80;101561.94;4986131;28;20043;-67
2021/01/10 10:12:30;;;;;;;3.92;3.10;;;;;;;6.23;41.87;101567.03;4988502;28;20050;-69
2021/01/10 10:15:00;;;;;;;5.07;3.53;;;;;;;6.26;42.05;101555.66;4986503;28;20046;-72
2021/01/10 10:17:31;;;;;;;5.38;2.90;;;;;;;6.30;41.74;101552.13;4988851;28;20498;-74
2021/01/10 10:19:58;;;;;;;5.78;3.30;;;;;;;6.30;41.89;101567.75;4987357;28;20039;-65
2021/01/10 10:22:26;;;;;;;4.22;2.90;;;;;;;6.27;41.88;101562.59;4988016;28;20043;-70
2021/01/10 10:24:53;;;;;;;5.35;3.72;;;;;;;6.21;41.69;101553.19;4992058;28;20116;-68
2021/01/10 10:27:20;;;;;;;6.80;4.03;;;;;;;6.18;42.17;101554.13;4991573;28;20050;-70
2021/01/10 10:29:47;;;;;;;6.53;4.10;;;;;;;6.16;42.30;101549.84;4991659;28;20042;-68
2021/01/10 10:32:13;;;;;;;5.22;3.60;;;;;;;6.12;42.45;101543.88;4989995;28;20046;-68
2021/01/10 10:34:40;;;;;;;6.38;4.10;;;;;;;6.09;42.25;101549.13;4988620;28;20133;-72
2021/01/10 10:37:07;;;;;;;5.15;4.03;;;;;;;6.08;42.34;101541.38;4990690;28;20050;-67
2021/01/10 10:39:35;;;;;;;6.55;3.63;;;;;;;6.07;42.43;101539.66;4989410;28;20415;-74
2021/01/10 10:42:03;;;;;;;6.53;3.70;;;;;;;6.06;42.73;101544.00;4990972;28;20046;-72
2021/01/10 10:44:31;;;;;;;8.48;5.10;;;;;;;6.07;42.79;101534.44;4990658;28;20057;-70
2021/01/10 10:46:57;;;;;;;5.95;3.67;;;;;;;6.05;42.78;101535.31;4990292;28;20503;-71
2021/01/10 10:49:23;;;;;;;5.13;3.35;;;;;;;6.06;42.88;101541.41;4991630;28;20399;-74
2021/01/10 10:51:49;;;;;;;7.63;4.38;;;;;;;6.06;42.85;101538.81;4987929;28;20054;-69
2021/01/10 10:54:15;;;;;;;6.25;3.60;;;;;;;6.05;42.96;101535.31;4986155;28;20100;-68
2021/01/10 10:56:46;;;;;;;8.30;4.40;;;;;;;6.05;42.87;101537.09;4988461;28;20050;-71
2021/01/10 10:59:13;;;;;;;5.57;4.07;;;;;;;6.05;42.84;101529.25;4981534;28;20047;-72
2021/01/10 11:01:41;;;;;;;5.53;3.78;;;;;;;6.05;42.95;101535.31;4984712;28;20042;-71
2021/01/10 11:04:07;;;;;;;6.40;4.22;;;;;;;6.04;42.89;101528.44;4979836;28;20415;-71
2021/01/10 11:06:35;;;;;;;6.07;4.10;;;;;;;6.04;43.06;101524.94;4992489;28;20038;-67
2021/01/10 11:09:02;;;;;;;5.93;4.13;;;;;;;6.04;43.19;101519.72;4989314;28;20133;-69
2021/01/10 11:11:45;;;;;;;5.88;4.20;;;;;;;6.05;43.12;101524.06;4989756;28;20050;-72
2021/01/10 11:14:13;;;;;;;4.97;3.70;;;;;;;6.04;42.95;101523.22;4988546;28;20050;-68
2021/01/10 11:16:43;;;;;;;5.47;3.95;;;;;;;6.04;42.98;101525.81;4989954;28;20058;-69
2021/01/10 11:19:10;;;;;;;4.72;3.80;;;;;;;6.03;43.03;101521.50;4986933;28;20513;-68
2021/01/10 11:21:41;;;;;;;6.75;4.32;;;;;;;6.06;42.97;101520.56;4989798;28;20050;-68
2021/01/10 11:24:09;;;;;;;5.40;3.75;;;;;;;6.08;43.32;101523.97;4986686;28;20039;-69
2021/01/10 11:26:39;;;;;;;6.10;4.05;;;;;;;6.09;43.37;101520.47;4989702;28;20054;-70
2021/01/10 11:29:06;;;;;;;8.68;4.75;;;;;;;6.08;43.46;101518.75;4985584;28;20094;-68
2021/01/10 11:31:34;;;;;;;7.15;4.22;;;;;;;6.10;43.50;101514.38;4990536;28;20046;-67
2021/01/10 11:34:07;;;;;;;6.28;4.78;;;;;;;6.09;43.63;101515.25;4989680;28;20061;-68
2021/01/10 11:36:35;;;;;;;9.95;6.15;;;;;;;6.11;43.46;101518.69;4989581;28;20043;-71
2021/01/10 11:39:02;;;;;;;7.10;4.32;;;;;;;6.12;43.76;101506.50;4990631;28;20050;-70
2021/01/10 11:41:28;;;;;;;7.07;5.00;;;;;;;6.10;43.63;101508.31;4990734;28;20463;-67
2021/01/10 11:43:55;;;;;;;8.43;4.75;;;;;;;6.09;43.23;101504.84;4991117;28;20054;-71